sensor_id;sensor_type;location;lat;lon;timestamp;P1;durP1;ratioP1;P2;durP2;ratioP2
55065;SDS011;40964;42.114;24.220;2022-08-19T00:00:05;6.15;;;4.35;;
55065;SDS011;40964;42.114;24.220;2022-08-19T00:02:33;5.53;;;4.40;;
55065;SDS011;40964;42.114;24.220;2022-08-19T00:04:59;6.55;;;3.97;;
55065;SDS011;40964;42.114;24.220;2022-08-19T00:07:24;6.60;;;4.10;;
55065;SDS011;40964;42.114;24.220;2022-08-19T00:09:50;6.20;;;4.70;;
55065;SDS011;40964;42.114;24.220;2022-08-19T00:12:16;5.88;;;4.70;;
55065;SDS011;40964;42.114;24.220;2022-08-19T00:14:41;9.73;;;4.28;;
55065;SDS011;40964;42.114;24.220;2022-08-19T00:17:07;7.20;;;4.70;;
55065;SDS011;40964;42.114;24.220;2022-08-19T00:19:34;6.68;;;4.55;;
55065;SDS011;40964;42.114;24.220;2022-08-19T00:22:01;5.88;;;4.55;;
55065;SDS011;40964;42.114;24.220;2022-08-19T00:24:27;6.60;;;4.60;;
55065;SDS011;40964;42.114;24.220;2022-08-19T00:26:54;6.63;;;4.47;;
55065;SDS011;40964;42.114;24.220;2022-08-19T00:29:22;5.72;;;4.40;;
55065;SDS011;40964;42.114;24.220;2022-08-19T00:31:49;6.57;;;4.88;;
55065;SDS011;40964;42.114;24.220;2022-08-19T00:34:18;5.95;;;4.50;;
55065;SDS011;40964;42.114;24.220;2022-08-19T00:36:44;6.20;;;4.47;;
55065;SDS011;40964;42.114;24.220;2022-08-19T00:39:10;5.70;;;4.32;;
55065;SDS011;40964;42.114;24.220;2022-08-19T00:41:37;6.43;;;4.63;;
55065;SDS011;40964;42.114;24.220;2022-08-19T00:44:06;5.88;;;4.70;;
55065;SDS011;40964;42.114;24.220;2022-08-19T00:46:36;5.30;;;4.45;;
55065;SDS011;40964;42.114;24.220;2022-08-19T00:49:24;6.28;;;4.53;;
55065;SDS011;40964;42.114;24.220;2022-08-19T00:51:59;5.47;;;4.75;;
55065;SDS011;40964;42.114;24.220;2022-08-19T00:54:29;7.72;;;4.90;;
55065;SDS011;40964;42.114;24.220;2022-08-19T00:56:57;6.65;;;4.88;;
55065;SDS011;40964;42.114;24.220;2022-08-19T00:59:24;6.88;;;4.95;;
55065;SDS011;40964;42.114;24.220;2022-08-19T01:01:50;7.78;;;4.53;;
55065;SDS011;40964;42.114;24.220;2022-08-19T01:04:17;5.88;;;4.70;;
55065;SDS011;40964;42.114;24.220;2022-08-19T01:06:42;6.18;;;4.68;;
55065;SDS011;40964;42.114;24.220;2022-08-19T01:09:08;6.15;;;5.00;;
55065;SDS011;40964;42.114;24.220;2022-08-19T01:11:35;7.85;;;5.03;;
55065;SDS011;40964;42.114;24.220;2022-08-19T01:14:05;6.63;;;4.80;;
55065;SDS011;40964;42.114;24.220;2022-08-19T01:16:32;7.63;;;5.18;;
55065;SDS011;40964;42.114;24.220;2022-08-19T01:18:58;6.35;;;4.47;;
55065;SDS011;40964;42.114;24.220;2022-08-19T01:21:26;6.90;;;5.07;;
55065;SDS011;40964;42.114;24.220;2022-08-19T01:23:59;8.75;;;4.72;;
55065;SDS011;40964;42.114;24.220;2022-08-19T01:26:25;6.97;;;5.13;;
55065;SDS011;40964;42.114;24.220;2022-08-19T01:28:53;6.57;;;4.95;;
55065;SDS011;40964;42.114;24.220;2022-08-19T01:31:22;6.93;;;5.00;;
55065;SDS011;40964;42.114;24.220;2022-08-19T01:33:50;9.73;;;4.93;;
55065;SDS011;40964;42.114;24.220;2022-08-19T01:39:01;7.20;;;5.65;;
55065;SDS011;40964;42.114;24.220;2022-08-19T01:41:28;7.65;;;4.90;;
55065;SDS011;40964;42.114;24.220;2022-08-19T01:43:54;7.00;;;5.20;;
55065;SDS011;40964;42.114;24.220;2022-08-19T01:46:21;6.78;;;4.78;;
55065;SDS011;40964;42.114;24.220;2022-08-19T01:48:46;6.80;;;4.63;;
55065;SDS011;40964;42.114;24.220;2022-08-19T01:51:12;9.35;;;5.40;;
55065;SDS011;40964;42.114;24.220;2022-08-19T01:53:38;8.30;;;4.82;;
55065;SDS011;40964;42.114;24.220;2022-08-19T01:56:04;7.07;;;4.90;;
55065;SDS011;40964;42.114;24.220;2022-08-19T01:58:39;7.15;;;5.85;;
55065;SDS011;40964;42.114;24.220;2022-08-19T02:01:11;8.38;;;5.60;;
55065;SDS011;40964;42.114;24.220;2022-08-19T02:03:37;14.48;;;6.20;;
55065;SDS011;40964;42.114;24.220;2022-08-19T02:06:03;9.10;;;5.47;;
55065;SDS011;40964;42.114;24.220;2022-08-19T02:08:30;7.40;;;5.22;;
55065;SDS011;40964;42.114;24.220;2022-08-19T02:10:57;8.93;;;5.38;;
55065;SDS011;40964;42.114;24.220;2022-08-19T02:13:23;6.57;;;5.07;;
55065;SDS011;40964;42.114;24.220;2022-08-19T02:15:49;8.85;;;5.25;;
55065;SDS011;40964;42.114;24.220;2022-08-19T02:18:15;7.15;;;5.30;;
55065;SDS011;40964;42.114;24.220;2022-08-19T02:20:41;7.60;;;5.13;;
55065;SDS011;40964;42.114;24.220;2022-08-19T02:23:08;6.72;;;5.05;;
55065;SDS011;40964;42.114;24.220;2022-08-19T02:25:35;7.68;;;4.97;;
55065;SDS011;40964;42.114;24.220;2022-08-19T02:28:00;6.03;;;4.65;;
55065;SDS011;40964;42.114;24.220;2022-08-19T02:30:26;7.03;;;4.80;;
55065;SDS011;40964;42.114;24.220;2022-08-19T02:32:52;6.53;;;4.80;;
55065;SDS011;40964;42.114;24.220;2022-08-19T02:35:18;8.75;;;4.88;;
55065;SDS011;40964;42.114;24.220;2022-08-19T02:37:45;7.65;;;5.05;;
55065;SDS011;40964;42.114;24.220;2022-08-19T02:40:29;8.90;;;4.60;;
55065;SDS011;40964;42.114;24.220;2022-08-19T02:42:58;6.63;;;4.95;;
55065;SDS011;40964;42.114;24.220;2022-08-19T02:45:24;7.95;;;5.38;;
55065;SDS011;40964;42.114;24.220;2022-08-19T02:47:50;6.53;;;4.78;;
55065;SDS011;40964;42.114;24.220;2022-08-19T02:50:15;7.85;;;4.93;;
55065;SDS011;40964;42.114;24.220;2022-08-19T02:52:41;6.47;;;4.85;;
55065;SDS011;40964;42.114;24.220;2022-08-19T02:55:07;6.93;;;4.78;;
55065;SDS011;40964;42.114;24.220;2022-08-19T02:57:32;11.73;;;5.45;;
55065;SDS011;40964;42.114;24.220;2022-08-19T02:59:59;7.25;;;5.18;;
55065;SDS011;40964;42.114;24.220;2022-08-19T03:02:24;9.60;;;5.80;;
55065;SDS011;40964;42.114;24.220;2022-08-19T03:04:50;12.75;;;5.32;;
55065;SDS011;40964;42.114;24.220;2022-08-19T03:07:16;9.57;;;5.65;;
55065;SDS011;40964;42.114;24.220;2022-08-19T03:09:43;9.55;;;5.38;;
55065;SDS011;40964;42.114;24.220;2022-08-19T03:12:09;7.57;;;5.32;;
55065;SDS011;40964;42.114;24.220;2022-08-19T03:14:35;13.32;;;5.57;;
55065;SDS011;40964;42.114;24.220;2022-08-19T03:17:01;7.55;;;5.30;;
55065;SDS011;40964;42.114;24.220;2022-08-19T03:19:28;7.93;;;5.35;;
55065;SDS011;40964;42.114;24.220;2022-08-19T03:21:53;16.67;;;6.72;;
55065;SDS011;40964;42.114;24.220;2022-08-19T03:24:20;16.70;;;7.85;;
55065;SDS011;40964;42.114;24.220;2022-08-19T03:26:47;17.85;;;9.73;;
55065;SDS011;40964;42.114;24.220;2022-08-19T03:29:15;11.52;;;6.78;;
55065;SDS011;40964;42.114;24.220;2022-08-19T03:31:42;12.48;;;6.78;;
55065;SDS011;40964;42.114;24.220;2022-08-19T03:34:09;14.23;;;7.97;;
55065;SDS011;40964;42.114;24.220;2022-08-19T03:36:37;12.45;;;7.72;;
55065;SDS011;40964;42.114;24.220;2022-08-19T03:39:02;12.35;;;6.75;;
55065;SDS011;40964;42.114;24.220;2022-08-19T03:41:30;17.70;;;7.68;;
55065;SDS011;40964;42.114;24.220;2022-08-19T03:44:01;24.98;;;12.43;;
55065;SDS011;40964;42.114;24.220;2022-08-19T03:46:28;21.15;;;9.38;;
55065;SDS011;40964;42.114;24.220;2022-08-19T03:48:56;19.60;;;10.35;;
55065;SDS011;40964;42.114;24.220;2022-08-19T03:51:24;17.23;;;10.60;;
55065;SDS011;40964;42.114;24.220;2022-08-19T03:53:50;11.60;;;8.60;;
55065;SDS011;40964;42.114;24.220;2022-08-19T03:56:17;14.23;;;6.93;;
55065;SDS011;40964;42.114;24.220;2022-08-19T03:58:42;10.00;;;7.22;;
55065;SDS011;40964;42.114;24.220;2022-08-19T04:01:09;17.90;;;8.02;;
55065;SDS011;40964;42.114;24.220;2022-08-19T04:03:36;14.00;;;7.13;;
55065;SDS011;40964;42.114;24.220;2022-08-19T04:06:09;9.23;;;6.97;;
55065;SDS011;40964;42.114;24.220;2022-08-19T04:08:36;16.60;;;7.95;;
55065;SDS011;40964;42.114;24.220;2022-08-19T04:11:05;13.20;;;6.65;;
55065;SDS011;40964;42.114;24.220;2022-08-19T04:13:33;15.55;;;6.72;;
55065;SDS011;40964;42.114;24.220;2022-08-19T04:15:59;12.23;;;5.80;;
55065;SDS011;40964;42.114;24.220;2022-08-19T04:18:25;9.65;;;5.82;;
55065;SDS011;40964;42.114;24.220;2022-08-19T04:20:51;12.15;;;6.47;;
55065;SDS011;40964;42.114;24.220;2022-08-19T04:23:17;9.98;;;7.78;;
55065;SDS011;40964;42.114;24.220;2022-08-19T04:25:43;10.50;;;6.72;;
55065;SDS011;40964;42.114;24.220;2022-08-19T04:28:10;7.63;;;5.47;;
55065;SDS011;40964;42.114;24.220;2022-08-19T04:30:38;11.40;;;6.93;;
55065;SDS011;40964;42.114;24.220;2022-08-19T04:33:07;14.48;;;7.57;;
55065;SDS011;40964;42.114;24.220;2022-08-19T04:35:40;9.07;;;6.80;;
55065;SDS011;40964;42.114;24.220;2022-08-19T04:38:08;8.40;;;6.40;;
55065;SDS011;40964;42.114;24.220;2022-08-19T04:40:42;10.48;;;6.32;;
55065;SDS011;40964;42.114;24.220;2022-08-19T04:43:28;8.07;;;6.13;;
55065;SDS011;40964;42.114;24.220;2022-08-19T04:45:54;8.95;;;5.78;;
55065;SDS011;40964;42.114;24.220;2022-08-19T04:48:20;9.73;;;5.93;;
55065;SDS011;40964;42.114;24.220;2022-08-19T04:50:50;10.15;;;6.22;;
55065;SDS011;40964;42.114;24.220;2022-08-19T04:53:21;12.88;;;5.93;;
55065;SDS011;40964;42.114;24.220;2022-08-19T04:55:47;8.65;;;5.90;;
55065;SDS011;40964;42.114;24.220;2022-08-19T04:58:12;7.95;;;5.88;;
55065;SDS011;40964;42.114;24.220;2022-08-19T05:00:39;9.65;;;5.93;;
55065;SDS011;40964;42.114;24.220;2022-08-19T05:03:05;9.60;;;5.63;;
55065;SDS011;40964;42.114;24.220;2022-08-19T05:05:30;8.65;;;5.57;;
55065;SDS011;40964;42.114;24.220;2022-08-19T05:07:56;13.90;;;8.07;;
55065;SDS011;40964;42.114;24.220;2022-08-19T05:10:22;16.15;;;8.88;;
55065;SDS011;40964;42.114;24.220;2022-08-19T05:12:47;10.32;;;6.15;;
55065;SDS011;40964;42.114;24.220;2022-08-19T05:15:13;8.60;;;6.40;;
55065;SDS011;40964;42.114;24.220;2022-08-19T05:17:39;12.40;;;7.07;;
55065;SDS011;40964;42.114;24.220;2022-08-19T05:20:24;11.10;;;7.70;;
55065;SDS011;40964;42.114;24.220;2022-08-19T05:23:10;10.00;;;6.53;;
55065;SDS011;40964;42.114;24.220;2022-08-19T05:25:38;8.57;;;5.88;;
55065;SDS011;40964;42.114;24.220;2022-08-19T05:28:05;6.40;;;5.63;;
55065;SDS011;40964;42.114;24.220;2022-08-19T05:30:30;8.27;;;6.03;;
55065;SDS011;40964;42.114;24.220;2022-08-19T05:32:56;7.70;;;5.60;;
55065;SDS011;40964;42.114;24.220;2022-08-19T05:35:21;6.50;;;5.32;;
55065;SDS011;40964;42.114;24.220;2022-08-19T05:37:48;6.95;;;5.40;;
55065;SDS011;40964;42.114;24.220;2022-08-19T05:40:14;6.20;;;5.32;;
55065;SDS011;40964;42.114;24.220;2022-08-19T05:42:39;6.63;;;5.55;;
55065;SDS011;40964;42.114;24.220;2022-08-19T05:45:06;7.75;;;5.45;;
55065;SDS011;40964;42.114;24.220;2022-08-19T05:47:32;10.23;;;5.90;;
55065;SDS011;40964;42.114;24.220;2022-08-19T05:49:58;11.50;;;5.75;;
55065;SDS011;40964;42.114;24.220;2022-08-19T05:52:24;7.88;;;6.38;;
55065;SDS011;40964;42.114;24.220;2022-08-19T05:54:49;8.02;;;5.72;;
55065;SDS011;40964;42.114;24.220;2022-08-19T05:57:16;8.88;;;5.80;;
55065;SDS011;40964;42.114;24.220;2022-08-19T05:59:42;12.15;;;6.00;;
55065;SDS011;40964;42.114;24.220;2022-08-19T06:02:08;9.05;;;6.05;;
55065;SDS011;40964;42.114;24.220;2022-08-19T06:04:34;7.35;;;5.88;;
55065;SDS011;40964;42.114;24.220;2022-08-19T06:07:00;17.60;;;5.97;;
55065;SDS011;40964;42.114;24.220;2022-08-19T06:09:27;9.38;;;5.90;;
55065;SDS011;40964;42.114;24.220;2022-08-19T06:11:54;8.25;;;5.80;;
55065;SDS011;40964;42.114;24.220;2022-08-19T06:14:25;8.65;;;5.90;;
55065;SDS011;40964;42.114;24.220;2022-08-19T06:16:53;9.20;;;6.50;;
55065;SDS011;40964;42.114;24.220;2022-08-19T06:19:20;9.65;;;5.97;;
55065;SDS011;40964;42.114;24.220;2022-08-19T06:21:48;9.75;;;5.80;;
55065;SDS011;40964;42.114;24.220;2022-08-19T06:24:16;7.20;;;6.00;;
55065;SDS011;40964;42.114;24.220;2022-08-19T06:26:45;9.75;;;5.57;;
55065;SDS011;40964;42.114;24.220;2022-08-19T06:29:14;9.10;;;5.85;;
55065;SDS011;40964;42.114;24.220;2022-08-19T06:31:42;7.38;;;5.90;;
55065;SDS011;40964;42.114;24.220;2022-08-19T06:34:09;10.88;;;6.10;;
55065;SDS011;40964;42.114;24.220;2022-08-19T06:36:37;7.68;;;6.15;;
55065;SDS011;40964;42.114;24.220;2022-08-19T06:39:11;9.15;;;5.28;;
55065;SDS011;40964;42.114;24.220;2022-08-19T06:41:50;8.30;;;5.97;;
55065;SDS011;40964;42.114;24.220;2022-08-19T06:44:18;11.60;;;5.80;;
55065;SDS011;40964;42.114;24.220;2022-08-19T06:46:45;8.63;;;5.38;;
55065;SDS011;40964;42.114;24.220;2022-08-19T06:49:10;12.63;;;6.13;;
55065;SDS011;40964;42.114;24.220;2022-08-19T06:51:39;7.25;;;5.93;;
55065;SDS011;40964;42.114;24.220;2022-08-19T06:54:09;7.53;;;5.53;;
55065;SDS011;40964;42.114;24.220;2022-08-19T06:56:35;9.20;;;5.93;;
55065;SDS011;40964;42.114;24.220;2022-08-19T06:59:06;10.18;;;5.63;;
55065;SDS011;40964;42.114;24.220;2022-08-19T07:01:37;14.65;;;6.05;;
55065;SDS011;40964;42.114;24.220;2022-08-19T07:04:05;10.30;;;6.00;;
55065;SDS011;40964;42.114;24.220;2022-08-19T07:06:33;8.48;;;5.97;;
55065;SDS011;40964;42.114;24.220;2022-08-19T07:08:59;11.35;;;5.97;;
55065;SDS011;40964;42.114;24.220;2022-08-19T07:11:26;8.38;;;5.60;;
55065;SDS011;40964;42.114;24.220;2022-08-19T07:13:52;7.10;;;5.57;;
55065;SDS011;40964;42.114;24.220;2022-08-19T07:16:18;7.05;;;5.70;;
55065;SDS011;40964;42.114;24.220;2022-08-19T07:18:49;6.82;;;5.97;;
55065;SDS011;40964;42.114;24.220;2022-08-19T07:21:17;6.78;;;5.75;;
55065;SDS011;40964;42.114;24.220;2022-08-19T07:23:46;8.15;;;5.30;;
55065;SDS011;40964;42.114;24.220;2022-08-19T07:28:39;10.25;;;5.40;;
55065;SDS011;40964;42.114;24.220;2022-08-19T07:31:12;7.88;;;4.88;;
55065;SDS011;40964;42.114;24.220;2022-08-19T07:33:39;7.90;;;5.60;;
55065;SDS011;40964;42.114;24.220;2022-08-19T07:36:08;6.93;;;5.32;;
55065;SDS011;40964;42.114;24.220;2022-08-19T07:38:36;7.10;;;5.60;;
55065;SDS011;40964;42.114;24.220;2022-08-19T07:41:04;7.25;;;5.50;;
55065;SDS011;40964;42.114;24.220;2022-08-19T07:43:30;7.70;;;5.60;;
55065;SDS011;40964;42.114;24.220;2022-08-19T07:45:56;7.35;;;5.70;;
55065;SDS011;40964;42.114;24.220;2022-08-19T07:48:23;7.55;;;5.50;;
55065;SDS011;40964;42.114;24.220;2022-08-19T07:50:56;6.15;;;5.38;;
55065;SDS011;40964;42.114;24.220;2022-08-19T07:53:26;5.72;;;5.18;;
55065;SDS011;40964;42.114;24.220;2022-08-19T07:55:52;9.13;;;4.93;;
55065;SDS011;40964;42.114;24.220;2022-08-19T07:58:19;8.95;;;6.05;;
55065;SDS011;40964;42.114;24.220;2022-08-19T08:00:47;8.70;;;5.10;;
55065;SDS011;40964;42.114;24.220;2022-08-19T08:03:15;6.78;;;5.13;;
55065;SDS011;40964;42.114;24.220;2022-08-19T08:05:42;6.78;;;5.40;;
55065;SDS011;40964;42.114;24.220;2022-08-19T08:08:26;7.18;;;5.28;;
55065;SDS011;40964;42.114;24.220;2022-08-19T08:11:11;5.72;;;5.13;;
55065;SDS011;40964;42.114;24.220;2022-08-19T08:13:38;10.27;;;5.88;;
55065;SDS011;40964;42.114;24.220;2022-08-19T08:16:06;5.63;;;4.93;;
55065;SDS011;40964;42.114;24.220;2022-08-19T08:18:32;5.80;;;5.05;;
55065;SDS011;40964;42.114;24.220;2022-08-19T08:20:59;5.95;;;4.78;;
55065;SDS011;40964;42.114;24.220;2022-08-19T08:23:24;6.13;;;5.03;;
55065;SDS011;40964;42.114;24.220;2022-08-19T08:25:52;6.70;;;5.30;;
55065;SDS011;40964;42.114;24.220;2022-08-19T08:28:19;5.50;;;4.93;;
55065;SDS011;40964;42.114;24.220;2022-08-19T08:30:46;6.47;;;4.80;;
55065;SDS011;40964;42.114;24.220;2022-08-19T08:33:13;6.82;;;4.90;;
55065;SDS011;40964;42.114;24.220;2022-08-19T08:35:43;6.30;;;4.93;;
55065;SDS011;40964;42.114;24.220;2022-08-19T08:38:10;9.52;;;5.00;;
55065;SDS011;40964;42.114;24.220;2022-08-19T08:40:50;4.82;;;4.43;;
55065;SDS011;40964;42.114;24.220;2022-08-19T08:43:23;4.93;;;4.45;;
55065;SDS011;40964;42.114;24.220;2022-08-19T08:46:00;5.28;;;4.68;;
55065;SDS011;40964;42.114;24.220;2022-08-19T08:51:33;8.23;;;4.70;;
55065;SDS011;40964;42.114;24.220;2022-08-19T08:54:11;5.20;;;4.70;;
55065;SDS011;40964;42.114;24.220;2022-08-19T08:56:39;5.00;;;4.50;;
55065;SDS011;40964;42.114;24.220;2022-08-19T08:59:39;6.55;;;4.32;;
55065;SDS011;40964;42.114;24.220;2022-08-19T09:02:00;7.50;;;4.40;;
55065;SDS011;40964;42.114;24.220;2022-08-19T09:04:26;7.28;;;4.38;;
55065;SDS011;40964;42.114;24.220;2022-08-19T09:09:46;9.95;;;5.32;;
55065;SDS011;40964;42.114;24.220;2022-08-19T09:15:15;6.68;;;4.43;;
55065;SDS011;40964;42.114;24.220;2022-08-19T09:17:43;6.80;;;5.03;;
55065;SDS011;40964;42.114;24.220;2022-08-19T09:22:38;5.45;;;4.22;;
55065;SDS011;40964;42.114;24.220;2022-08-19T09:25:06;5.18;;;4.15;;
55065;SDS011;40964;42.114;24.220;2022-08-19T09:27:35;4.85;;;4.35;;
55065;SDS011;40964;42.114;24.220;2022-08-19T09:30:03;5.13;;;4.38;;
55065;SDS011;40964;42.114;24.220;2022-08-19T09:32:29;6.75;;;4.53;;
55065;SDS011;40964;42.114;24.220;2022-08-19T09:34:55;5.20;;;4.45;;
55065;SDS011;40964;42.114;24.220;2022-08-19T09:37:23;4.97;;;4.47;;
55065;SDS011;40964;42.114;24.220;2022-08-19T09:39:49;4.63;;;3.83;;
55065;SDS011;40964;42.114;24.220;2022-08-19T09:42:15;6.40;;;4.38;;
55065;SDS011;40964;42.114;24.220;2022-08-19T09:44:41;5.60;;;4.55;;
55065;SDS011;40964;42.114;24.220;2022-08-19T09:47:07;4.45;;;4.05;;
55065;SDS011;40964;42.114;24.220;2022-08-19T09:49:34;4.88;;;4.38;;
55065;SDS011;40964;42.114;24.220;2022-08-19T09:52:00;7.57;;;4.18;;
55065;SDS011;40964;42.114;24.220;2022-08-19T09:54:26;6.57;;;4.20;;
55065;SDS011;40964;42.114;24.220;2022-08-19T09:56:52;7.03;;;4.55;;
55065;SDS011;40964;42.114;24.220;2022-08-19T09:59:18;5.75;;;4.47;;
55065;SDS011;40964;42.114;24.220;2022-08-19T10:01:44;4.68;;;3.92;;
55065;SDS011;40964;42.114;24.220;2022-08-19T10:04:10;8.23;;;4.40;;
55065;SDS011;40964;42.114;24.220;2022-08-19T10:06:37;5.03;;;4.00;;
55065;SDS011;40964;42.114;24.220;2022-08-19T10:09:05;5.93;;;4.07;;
55065;SDS011;40964;42.114;24.220;2022-08-19T10:11:33;5.90;;;3.97;;
55065;SDS011;40964;42.114;24.220;2022-08-19T10:14:00;3.60;;;3.30;;
55065;SDS011;40964;42.114;24.220;2022-08-19T10:16:27;3.95;;;3.55;;
55065;SDS011;40964;42.114;24.220;2022-08-19T10:18:53;4.82;;;3.58;;
55065;SDS011;40964;42.114;24.220;2022-08-19T10:23:49;4.20;;;3.80;;
55065;SDS011;40964;42.114;24.220;2022-08-19T10:26:18;4.15;;;3.70;;
55065;SDS011;40964;42.114;24.220;2022-08-19T10:28:48;5.15;;;4.00;;
55065;SDS011;40964;42.114;24.220;2022-08-19T10:31:16;5.05;;;3.83;;
55065;SDS011;40964;42.114;24.220;2022-08-19T10:33:45;5.88;;;4.07;;
55065;SDS011;40964;42.114;24.220;2022-08-19T10:36:13;4.57;;;3.72;;
55065;SDS011;40964;42.114;24.220;2022-08-19T10:38:44;5.20;;;4.35;;
55065;SDS011;40964;42.114;24.220;2022-08-19T10:41:15;6.65;;;4.00;;
55065;SDS011;40964;42.114;24.220;2022-08-19T10:43:47;6.22;;;3.80;;
55065;SDS011;40964;42.114;24.220;2022-08-19T10:46:15;3.80;;;3.50;;
55065;SDS011;40964;42.114;24.220;2022-08-19T10:48:41;5.07;;;3.60;;
55065;SDS011;40964;42.114;24.220;2022-08-19T10:51:09;3.75;;;3.45;;
55065;SDS011;40964;42.114;24.220;2022-08-19T10:53:54;8.25;;;3.28;;
55065;SDS011;40964;42.114;24.220;2022-08-19T10:56:20;4.30;;;3.10;;
55065;SDS011;40964;42.114;24.220;2022-08-19T10:59:05;3.58;;;3.28;;
55065;SDS011;40964;42.114;24.220;2022-08-19T11:01:32;6.72;;;3.85;;
55065;SDS011;40964;42.114;24.220;2022-08-19T11:04:02;3.50;;;3.20;;
55065;SDS011;40964;42.114;24.220;2022-08-19T11:06:30;9.75;;;3.50;;
55065;SDS011;40964;42.114;24.220;2022-08-19T11:08:56;5.18;;;3.45;;
55065;SDS011;40964;42.114;24.220;2022-08-19T11:11:23;6.95;;;3.40;;
55065;SDS011;40964;42.114;24.220;2022-08-19T11:13:48;3.67;;;3.30;;
55065;SDS011;40964;42.114;24.220;2022-08-19T11:16:17;3.13;;;2.92;;
55065;SDS011;40964;42.114;24.220;2022-08-19T11:18:56;3.33;;;3.03;;
55065;SDS011;40964;42.114;24.220;2022-08-19T11:21:25;3.45;;;3.15;;
55065;SDS011;40964;42.114;24.220;2022-08-19T11:24:00;3.28;;;3.08;;
55065;SDS011;40964;42.114;24.220;2022-08-19T11:26:27;6.95;;;3.45;;
55065;SDS011;40964;42.114;24.220;2022-08-19T11:28:54;5.95;;;3.30;;
55065;SDS011;40964;42.114;24.220;2022-08-19T11:31:26;3.47;;;3.17;;
55065;SDS011;40964;42.114;24.220;2022-08-19T11:33:53;3.38;;;3.08;;
55065;SDS011;40964;42.114;24.220;2022-08-19T11:36:20;5.60;;;3.45;;
55065;SDS011;40964;42.114;24.220;2022-08-19T11:38:47;3.97;;;3.25;;
55065;SDS011;40964;42.114;24.220;2022-08-19T11:41:14;3.55;;;3.25;;
55065;SDS011;40964;42.114;24.220;2022-08-19T11:43:41;4.43;;;3.50;;
55065;SDS011;40964;42.114;24.220;2022-08-19T11:46:08;4.82;;;2.92;;
55065;SDS011;40964;42.114;24.220;2022-08-19T11:48:35;5.72;;;3.28;;
55065;SDS011;40964;42.114;24.220;2022-08-19T11:51:06;6.30;;;3.67;;
55065;SDS011;40964;42.114;24.220;2022-08-19T11:53:34;5.30;;;3.72;;
55065;SDS011;40964;42.114;24.220;2022-08-19T11:56:02;4.43;;;3.25;;
55065;SDS011;40964;42.114;24.220;2022-08-19T11:58:28;5.95;;;3.63;;
55065;SDS011;40964;42.114;24.220;2022-08-19T12:00:55;4.32;;;3.60;;
55065;SDS011;40964;42.114;24.220;2022-08-19T12:03:20;3.85;;;3.47;;
55065;SDS011;40964;42.114;24.220;2022-08-19T12:05:46;5.80;;;3.92;;
55065;SDS011;40964;42.114;24.220;2022-08-19T12:08:12;6.05;;;4.07;;
55065;SDS011;40964;42.114;24.220;2022-08-19T12:10:39;5.20;;;3.90;;
55065;SDS011;40964;42.114;24.220;2022-08-19T12:13:07;3.65;;;3.35;;
55065;SDS011;40964;42.114;24.220;2022-08-19T12:15:37;5.90;;;3.80;;
55065;SDS011;40964;42.114;24.220;2022-08-19T12:18:05;5.65;;;3.72;;
55065;SDS011;40964;42.114;24.220;2022-08-19T12:20:33;4.10;;;3.50;;
55065;SDS011;40964;42.114;24.220;2022-08-19T12:23:00;7.15;;;3.70;;
55065;SDS011;40964;42.114;24.220;2022-08-19T12:25:26;3.80;;;3.50;;
55065;SDS011;40964;42.114;24.220;2022-08-19T12:27:51;4.80;;;4.00;;
55065;SDS011;40964;42.114;24.220;2022-08-19T12:30:17;5.60;;;3.50;;
55065;SDS011;40964;42.114;24.220;2022-08-19T12:32:43;4.30;;;3.55;;
55065;SDS011;40964;42.114;24.220;2022-08-19T12:35:08;5.85;;;3.92;;
55065;SDS011;40964;42.114;24.220;2022-08-19T12:37:36;6.60;;;3.90;;
55065;SDS011;40964;42.114;24.220;2022-08-19T12:40:02;7.57;;;3.55;;
55065;SDS011;40964;42.114;24.220;2022-08-19T12:42:28;4.32;;;3.92;;
55065;SDS011;40964;42.114;24.220;2022-08-19T12:44:55;4.95;;;3.65;;
55065;SDS011;40964;42.114;24.220;2022-08-19T12:47:21;4.68;;;3.58;;
55065;SDS011;40964;42.114;24.220;2022-08-19T12:49:47;4.10;;;3.60;;
55065;SDS011;40964;42.114;24.220;2022-08-19T12:52:14;5.63;;;3.78;;
55065;SDS011;40964;42.114;24.220;2022-08-19T12:54:41;5.00;;;3.90;;
55065;SDS011;40964;42.114;24.220;2022-08-19T12:57:09;4.32;;;3.67;;
55065;SDS011;40964;42.114;24.220;2022-08-19T12:59:36;5.20;;;4.10;;
55065;SDS011;40964;42.114;24.220;2022-08-19T13:02:06;5.20;;;3.92;;
55065;SDS011;40964;42.114;24.220;2022-08-19T13:04:33;6.68;;;3.95;;
55065;SDS011;40964;42.114;24.220;2022-08-19T13:07:01;5.82;;;4.20;;
55065;SDS011;40964;42.114;24.220;2022-08-19T13:09:27;6.82;;;3.75;;
55065;SDS011;40964;42.114;24.220;2022-08-19T13:11:53;6.03;;;4.28;;
55065;SDS011;40964;42.114;24.220;2022-08-19T13:14:18;5.30;;;3.60;;
55065;SDS011;40964;42.114;24.220;2022-08-19T13:16:44;8.77;;;3.95;;
55065;SDS011;40964;42.114;24.220;2022-08-19T13:19:09;5.10;;;3.90;;
55065;SDS011;40964;42.114;24.220;2022-08-19T13:21:36;4.68;;;4.28;;
55065;SDS011;40964;42.114;24.220;2022-08-19T13:24:02;6.75;;;4.07;;
55065;SDS011;40964;42.114;24.220;2022-08-19T13:26:28;15.48;;;11.50;;
55065;SDS011;40964;42.114;24.220;2022-08-19T13:28:57;5.20;;;4.70;;
55065;SDS011;40964;42.114;24.220;2022-08-19T13:31:41;6.93;;;4.00;;
55065;SDS011;40964;42.114;24.220;2022-08-19T13:34:31;4.63;;;4.20;;
55065;SDS011;40964;42.114;24.220;2022-08-19T13:36:59;5.50;;;4.32;;
55065;SDS011;40964;42.114;24.220;2022-08-19T13:39:28;4.35;;;3.42;;
55065;SDS011;40964;42.114;24.220;2022-08-19T13:41:54;6.88;;;4.35;;
55065;SDS011;40964;42.114;24.220;2022-08-19T13:44:20;4.63;;;4.07;;
55065;SDS011;40964;42.114;24.220;2022-08-19T13:46:46;4.03;;;3.72;;
55065;SDS011;40964;42.114;24.220;2022-08-19T13:49:14;3.80;;;3.47;;
55065;SDS011;40964;42.114;24.220;2022-08-19T13:51:40;5.93;;;4.30;;
55065;SDS011;40964;42.114;24.220;2022-08-19T13:54:08;5.63;;;4.15;;
55065;SDS011;40964;42.114;24.220;2022-08-19T13:56:35;6.22;;;3.80;;
55065;SDS011;40964;42.114;24.220;2022-08-19T13:59:06;5.03;;;4.35;;
55065;SDS011;40964;42.114;24.220;2022-08-19T14:01:31;6.30;;;4.15;;
55065;SDS011;40964;42.114;24.220;2022-08-19T14:03:57;6.72;;;4.10;;
55065;SDS011;40964;42.114;24.220;2022-08-19T14:06:22;5.25;;;4.03;;
55065;SDS011;40964;42.114;24.220;2022-08-19T14:08:48;4.50;;;3.95;;
55065;SDS011;40964;42.114;24.220;2022-08-19T14:11:14;5.88;;;4.03;;
55065;SDS011;40964;42.114;24.220;2022-08-19T14:13:40;4.82;;;4.15;;
55065;SDS011;40964;42.114;24.220;2022-08-19T14:16:06;5.65;;;4.25;;
55065;SDS011;40964;42.114;24.220;2022-08-19T14:18:33;11.48;;;4.95;;
55065;SDS011;40964;42.114;24.220;2022-08-19T14:20:59;6.45;;;4.32;;
55065;SDS011;40964;42.114;24.220;2022-08-19T14:23:25;5.90;;;5.05;;
55065;SDS011;40964;42.114;24.220;2022-08-19T14:25:50;4.95;;;3.90;;
55065;SDS011;40964;42.114;24.220;2022-08-19T14:28:16;6.35;;;4.75;;
55065;SDS011;40964;42.114;24.220;2022-08-19T14:30:42;5.20;;;4.50;;
55065;SDS011;40964;42.114;24.220;2022-08-19T14:33:09;4.85;;;4.45;;
55065;SDS011;40964;42.114;24.220;2022-08-19T14:35:35;8.45;;;4.28;;
55065;SDS011;40964;42.114;24.220;2022-08-19T14:38:02;8.82;;;4.90;;
55065;SDS011;40964;42.114;24.220;2022-08-19T14:40:30;4.70;;;4.30;;
55065;SDS011;40964;42.114;24.220;2022-08-19T14:42:56;4.75;;;4.20;;
55065;SDS011;40964;42.114;24.220;2022-08-19T14:45:27;5.22;;;4.70;;
55065;SDS011;40964;42.114;24.220;2022-08-19T14:47:53;5.55;;;4.40;;
55065;SDS011;40964;42.114;24.220;2022-08-19T14:50:18;4.88;;;4.05;;
55065;SDS011;40964;42.114;24.220;2022-08-19T14:52:46;6.43;;;4.53;;
55065;SDS011;40964;42.114;24.220;2022-08-19T14:55:16;5.55;;;4.70;;